sensor_id;sensor_type;location;lat;lon;timestamp;P1;durP1;ratioP1;P2;durP2;ratioP2
11037;SDS011;5572;49.540;11.932;2022-08-21T00:02:17;5.97;;;5.47;;
11037;SDS011;5572;49.540;11.932;2022-08-21T00:04:45;7.63;;;6.07;;
11037;SDS011;5572;49.540;11.932;2022-08-21T00:07:14;19.63;;;6.53;;
11037;SDS011;5572;49.540;11.932;2022-08-21T00:09:41;24.20;;;6.77;;
11037;SDS011;5572;49.540;11.932;2022-08-21T00:12:08;5.30;;;4.80;;
11037;SDS011;5572;49.540;11.932;2022-08-21T00:14:34;22.00;;;6.67;;
11037;SDS011;5572;49.540;11.932;2022-08-21T00:17:02;11.67;;;5.53;;
11037;SDS011;5572;49.540;11.932;2022-08-21T00:19:29;30.93;;;5.80;;
11037;SDS011;5572;49.540;11.932;2022-08-21T00:21:56;39.43;;;6.90;;
11037;SDS011;5572;49.540;11.932;2022-08-21T00:24:25;50.43;;;5.70;;
11037;SDS011;5572;49.540;11.932;2022-08-21T00:26:52;36.00;;;5.77;;
11037;SDS011;5572;49.540;11.932;2022-08-21T00:29:19;13.97;;;6.33;;
11037;SDS011;5572;49.540;11.932;2022-08-21T00:31:45;16.30;;;5.23;;
11037;SDS011;5572;49.540;11.932;2022-08-21T00:34:12;29.07;;;6.20;;
11037;SDS011;5572;49.540;11.932;2022-08-21T00:36:39;7.30;;;5.37;;
11037;SDS011;5572;49.540;11.932;2022-08-21T00:39:06;15.77;;;6.63;;
11037;SDS011;5572;49.540;11.932;2022-08-21T00:41:36;25.47;;;6.20;;
11037;SDS011;5572;49.540;11.932;2022-08-21T00:44:04;77.87;;;7.27;;
11037;SDS011;5572;49.540;11.932;2022-08-21T00:46:31;8.33;;;4.57;;
11037;SDS011;5572;49.540;11.932;2022-08-21T00:48:58;14.07;;;4.57;;
11037;SDS011;5572;49.540;11.932;2022-08-21T00:51:27;5.40;;;4.90;;
11037;SDS011;5572;49.540;11.932;2022-08-21T00:53:59;13.43;;;5.80;;
11037;SDS011;5572;49.540;11.932;2022-08-21T00:56:28;22.17;;;5.47;;
11037;SDS011;5572;49.540;11.932;2022-08-21T00:58:56;8.37;;;4.97;;
11037;SDS011;5572;49.540;11.932;2022-08-21T01:01:25;4.67;;;4.37;;
11037;SDS011;5572;49.540;11.932;2022-08-21T01:03:52;5.17;;;3.63;;
11037;SDS011;5572;49.540;11.932;2022-08-21T01:06:19;5.30;;;4.23;;
11037;SDS011;5572;49.540;11.932;2022-08-21T01:08:45;6.17;;;4.70;;
11037;SDS011;5572;49.540;11.932;2022-08-21T01:11:12;5.87;;;4.40;;
11037;SDS011;5572;49.540;11.932;2022-08-21T01:13:40;6.50;;;4.50;;
11037;SDS011;5572;49.540;11.932;2022-08-21T01:16:13;76.63;;;21.03;;
11037;SDS011;5572;49.540;11.932;2022-08-21T01:18:43;6.47;;;4.33;;
11037;SDS011;5572;49.540;11.932;2022-08-21T01:21:13;15.13;;;4.70;;
11037;SDS011;5572;49.540;11.932;2022-08-21T01:23:41;16.13;;;4.33;;
11037;SDS011;5572;49.540;11.932;2022-08-21T01:26:10;3.57;;;3.37;;
11037;SDS011;5572;49.540;11.932;2022-08-21T01:28:38;3.10;;;2.90;;
11037;SDS011;5572;49.540;11.932;2022-08-21T01:31:10;5.47;;;4.60;;
11037;SDS011;5572;49.540;11.932;2022-08-21T01:33:38;4.17;;;3.87;;
11037;SDS011;5572;49.540;11.932;2022-08-21T01:36:04;16.50;;;4.83;;
11037;SDS011;5572;49.540;11.932;2022-08-21T01:38:33;4.83;;;4.17;;
11037;SDS011;5572;49.540;11.932;2022-08-21T01:40:59;3.87;;;3.57;;
11037;SDS011;5572;49.540;11.932;2022-08-21T01:43:26;3.40;;;3.13;;
11037;SDS011;5572;49.540;11.932;2022-08-21T01:45:52;3.23;;;3.00;;
11037;SDS011;5572;49.540;11.932;2022-08-21T01:48:19;2.77;;;2.53;;
11037;SDS011;5572;49.540;11.932;2022-08-21T01:50:45;3.97;;;3.00;;
11037;SDS011;5572;49.540;11.932;2022-08-21T01:53:12;13.33;;;4.13;;
11037;SDS011;5572;49.540;11.932;2022-08-21T01:55:41;32.30;;;4.10;;
11037;SDS011;5572;49.540;11.932;2022-08-21T01:58:08;32.93;;;4.50;;
11037;SDS011;5572;49.540;11.932;2022-08-21T02:00:34;51.83;;;4.90;;
11037;SDS011;5572;49.540;11.932;2022-08-21T02:03:01;8.57;;;4.30;;
11037;SDS011;5572;49.540;11.932;2022-08-21T02:05:27;20.13;;;4.60;;
11037;SDS011;5572;49.540;11.932;2022-08-21T02:07:54;32.37;;;4.10;;
11037;SDS011;5572;49.540;11.932;2022-08-21T02:10:22;7.97;;;3.20;;
11037;SDS011;5572;49.540;11.932;2022-08-21T02:12:53;3.80;;;3.47;;
11037;SDS011;5572;49.540;11.932;2022-08-21T02:15:20;2.90;;;2.37;;
11037;SDS011;5572;49.540;11.932;2022-08-21T02:17:48;3.57;;;3.20;;
11037;SDS011;5572;49.540;11.932;2022-08-21T02:20:17;5.30;;;3.93;;
11037;SDS011;5572;49.540;11.932;2022-08-21T02:22:45;6.20;;;3.80;;
11037;SDS011;5572;49.540;11.932;2022-08-21T02:25:12;22.50;;;4.90;;
11037;SDS011;5572;49.540;11.932;2022-08-21T02:27:39;14.17;;;3.73;;
11037;SDS011;5572;49.540;11.932;2022-08-21T02:30:09;17.77;;;3.70;;
11037;SDS011;5572;49.540;11.932;2022-08-21T02:32:37;7.70;;;3.33;;
11037;SDS011;5572;49.540;11.932;2022-08-21T02:35:04;7.17;;;3.47;;
11037;SDS011;5572;49.540;11.932;2022-08-21T02:37:31;38.43;;;3.73;;
11037;SDS011;5572;49.540;11.932;2022-08-21T02:39:58;37.60;;;3.33;;
11037;SDS011;5572;49.540;11.932;2022-08-21T02:42:25;18.63;;;3.97;;
11037;SDS011;5572;49.540;11.932;2022-08-21T02:44:51;10.20;;;3.07;;
11037;SDS011;5572;49.540;11.932;2022-08-21T02:47:19;17.03;;;3.60;;
11037;SDS011;5572;49.540;11.932;2022-08-21T02:49:46;25.33;;;4.73;;
11037;SDS011;5572;49.540;11.932;2022-08-21T02:52:12;25.90;;;3.60;;
11037;SDS011;5572;49.540;11.932;2022-08-21T02:54:39;11.57;;;4.50;;
11037;SDS011;5572;49.540;11.932;2022-08-21T02:57:06;19.03;;;4.80;;
11037;SDS011;5572;49.540;11.932;2022-08-21T02:59:33;6.10;;;3.90;;
11037;SDS011;5572;49.540;11.932;2022-08-21T03:01:59;7.53;;;3.87;;
11037;SDS011;5572;49.540;11.932;2022-08-21T03:04:27;4.00;;;3.70;;
11037;SDS011;5572;49.540;11.932;2022-08-21T03:06:54;3.70;;;3.40;;
11037;SDS011;5572;49.540;11.932;2022-08-21T03:09:20;3.53;;;3.23;;
11037;SDS011;5572;49.540;11.932;2022-08-21T03:11:47;4.97;;;4.57;;
11037;SDS011;5572;49.540;11.932;2022-08-21T03:14:13;6.10;;;5.50;;
11037;SDS011;5572;49.540;11.932;2022-08-21T03:16:39;9.80;;;6.70;;
11037;SDS011;5572;49.540;11.932;2022-08-21T03:19:07;11.37;;;6.47;;
11037;SDS011;5572;49.540;11.932;2022-08-21T03:21:34;10.60;;;6.83;;
11037;SDS011;5572;49.540;11.932;2022-08-21T03:24:01;14.07;;;11.50;;
11037;SDS011;5572;49.540;11.932;2022-08-21T03:26:29;11.50;;;9.13;;
11037;SDS011;5572;49.540;11.932;2022-08-21T03:28:56;23.43;;;15.90;;
11037;SDS011;5572;49.540;11.932;2022-08-21T03:31:23;16.40;;;9.40;;
11037;SDS011;5572;49.540;11.932;2022-08-21T03:33:53;10.43;;;7.47;;
11037;SDS011;5572;49.540;11.932;2022-08-21T09:39:23;20.90;;;15.03;;
11037;SDS011;5572;49.540;11.932;2022-08-21T09:41:55;22.73;;;16.47;;
11037;SDS011;5572;49.540;11.932;2022-08-21T09:44:25;21.27;;;16.00;;
11037;SDS011;5572;49.540;11.932;2022-08-21T09:46:53;21.90;;;16.60;;
11037;SDS011;5572;49.540;11.932;2022-08-21T09:49:26;19.23;;;15.67;;
11037;SDS011;5572;49.540;11.932;2022-08-21T09:51:54;21.40;;;17.00;;
11037;SDS011;5572;49.540;11.932;2022-08-21T09:54:25;18.60;;;15.17;;
11037;SDS011;5572;49.540;11.932;2022-08-21T09:56:55;22.10;;;16.93;;
11037;SDS011;5572;49.540;11.932;2022-08-21T09:59:41;15.53;;;13.90;;
11037;SDS011;5572;49.540;11.932;2022-08-21T10:04:58;16.80;;;14.23;;
11037;SDS011;5572;49.540;11.932;2022-08-21T10:07:27;20.27;;;13.80;;
11037;SDS011;5572;49.540;11.932;2022-08-21T10:10:00;20.53;;;15.40;;
11037;SDS011;5572;49.540;11.932;2022-08-21T10:12:31;17.93;;;14.37;;
11037;SDS011;5572;49.540;11.932;2022-08-21T10:15:10;19.97;;;16.67;;
11037;SDS011;5572;49.540;11.932;2022-08-21T10:17:58;17.10;;;13.57;;
11037;SDS011;5572;49.540;11.932;2022-08-21T10:20:35;16.07;;;13.83;;
11037;SDS011;5572;49.540;11.932;2022-08-21T10:26:02;15.70;;;12.40;;
11037;SDS011;5572;49.540;11.932;2022-08-21T10:28:36;15.30;;;11.97;;
11037;SDS011;5572;49.540;11.932;2022-08-21T10:31:11;16.53;;;13.60;;
11037;SDS011;5572;49.540;11.932;2022-08-21T10:33:46;14.53;;;11.83;;
11037;SDS011;5572;49.540;11.932;2022-08-21T10:36:23;13.00;;;11.50;;
11037;SDS011;5572;49.540;11.932;2022-08-21T10:39:00;13.90;;;11.77;;
11037;SDS011;5572;49.540;11.932;2022-08-21T10:41:41;14.80;;;10.87;;
11037;SDS011;5572;49.540;11.932;2022-08-21T10:44:22;11.93;;;10.68;;
11037;SDS011;5572;49.540;11.932;2022-08-21T10:46:57;12.68;;;10.40;;
11037;SDS011;5572;49.540;11.932;2022-08-21T10:49:32;13.05;;;10.77;;
11037;SDS011;5572;49.540;11.932;2022-08-21T10:52:13;13.73;;;10.48;;
11037;SDS011;5572;49.540;11.932;2022-08-21T10:54:56;11.90;;;10.38;;
11037;SDS011;5572;49.540;11.932;2022-08-21T10:57:33;13.27;;;8.90;;
11037;SDS011;5572;49.540;11.932;2022-08-21T11:00:07;10.60;;;9.50;;
11037;SDS011;5572;49.540;11.932;2022-08-21T11:02:38;10.70;;;8.80;;
11037;SDS011;5572;49.540;11.932;2022-08-21T11:05:10;10.35;;;8.07;;
11037;SDS011;5572;49.540;11.932;2022-08-21T11:07:42;7.80;;;7.05;;
11037;SDS011;5572;49.540;11.932;2022-08-21T11:10:16;8.38;;;7.20;;
11037;SDS011;5572;49.540;11.932;2022-08-21T11:12:49;9.45;;;7.32;;
11037;SDS011;5572;49.540;11.932;2022-08-21T11:15:28;8.77;;;7.13;;
11037;SDS011;5572;49.540;11.932;2022-08-21T11:18:01;6.15;;;5.65;;
11037;SDS011;5572;49.540;11.932;2022-08-21T11:20:42;6.85;;;6.15;;
11037;SDS011;5572;49.540;11.932;2022-08-21T11:23:13;6.65;;;5.82;;
11037;SDS011;5572;49.540;11.932;2022-08-21T11:25:46;11.00;;;7.47;;
11037;SDS011;5572;49.540;11.932;2022-08-21T11:28:20;8.32;;;7.50;;
11037;SDS011;5572;49.540;11.932;2022-08-21T11:30:56;7.63;;;6.88;;
11037;SDS011;5572;49.540;11.932;2022-08-21T11:33:35;7.90;;;6.95;;
11037;SDS011;5572;49.540;11.932;2022-08-21T11:36:15;7.30;;;6.57;;
11037;SDS011;5572;49.540;11.932;2022-08-21T11:38:52;6.97;;;6.30;;
11037;SDS011;5572;49.540;11.932;2022-08-21T11:41:28;9.93;;;6.93;;
11037;SDS011;5572;49.540;11.932;2022-08-21T11:43:59;8.77;;;7.60;;
11037;SDS011;5572;49.540;11.932;2022-08-21T11:46:36;7.70;;;6.88;;
11037;SDS011;5572;49.540;11.932;2022-08-21T11:49:23;8.95;;;5.95;;
11037;SDS011;5572;49.540;11.932;2022-08-21T11:52:03;6.70;;;6.10;;
11037;SDS011;5572;49.540;11.932;2022-08-21T11:54:37;8.48;;;6.30;;
11037;SDS011;5572;49.540;11.932;2022-08-21T11:57:11;7.47;;;6.00;;
11037;SDS011;5572;49.540;11.932;2022-08-21T11:59:52;8.02;;;7.22;;
11037;SDS011;5572;49.540;11.932;2022-08-21T12:02:24;7.10;;;6.40;;
11037;SDS011;5572;49.540;11.932;2022-08-21T12:04:56;6.97;;;6.38;;
11037;SDS011;5572;49.540;11.932;2022-08-21T12:07:31;5.47;;;5.05;;
11037;SDS011;5572;49.540;11.932;2022-08-21T12:10:00;6.65;;;5.97;;
11037;SDS011;5572;49.540;11.932;2022-08-21T12:12:30;10.20;;;6.13;;
11037;SDS011;5572;49.540;11.932;2022-08-21T12:17:52;6.15;;;5.60;;
11037;SDS011;5572;49.540;11.932;2022-08-21T12:23:27;5.80;;;5.30;;
11037;SDS011;5572;49.540;11.932;2022-08-21T12:26:01;6.60;;;6.00;;
11037;SDS011;5572;49.540;11.932;2022-08-21T12:28:36;6.30;;;5.22;;
11037;SDS011;5572;49.540;11.932;2022-08-21T12:31:05;5.93;;;4.93;;
11037;SDS011;5572;49.540;11.932;2022-08-21T12:33:47;5.93;;;5.43;;
11037;SDS011;5572;49.540;11.932;2022-08-21T12:36:19;7.95;;;5.38;;
11037;SDS011;5572;49.540;11.932;2022-08-21T12:38:51;6.50;;;4.82;;
11037;SDS011;5572;49.540;11.932;2022-08-21T12:41:22;7.13;;;5.00;;
11037;SDS011;5572;49.540;11.932;2022-08-21T12:43:56;4.90;;;4.45;;
11037;SDS011;5572;49.540;11.932;2022-08-21T12:46:27;4.25;;;3.95;;
11037;SDS011;5572;49.540;11.932;2022-08-21T12:49:00;4.78;;;4.38;;
11037;SDS011;5572;49.540;11.932;2022-08-21T12:51:34;4.70;;;4.38;;
11037;SDS011;5572;49.540;11.932;2022-08-21T12:54:09;4.00;;;3.70;;
11037;SDS011;5572;49.540;11.932;2022-08-21T12:56:36;4.18;;;3.88;;
11037;SDS011;5572;49.540;11.932;2022-08-21T12:59:05;4.97;;;4.50;;
11037;SDS011;5572;49.540;11.932;2022-08-21T13:01:35;4.65;;;4.30;;
11037;SDS011;5572;49.540;11.932;2022-08-21T13:04:06;4.10;;;3.80;;
11037;SDS011;5572;49.540;11.932;2022-08-21T13:06:40;5.00;;;4.45;;
11037;SDS011;5572;49.540;11.932;2022-08-21T13:09:10;3.83;;;3.53;;
11037;SDS011;5572;49.540;11.932;2022-08-21T13:11:39;3.90;;;3.50;;
11037;SDS011;5572;49.540;11.932;2022-08-21T13:14:09;4.03;;;3.63;;
11037;SDS011;5572;49.540;11.932;2022-08-21T13:16:44;3.80;;;3.50;;
11037;SDS011;5572;49.540;11.932;2022-08-21T13:19:15;3.53;;;3.22;;
11037;SDS011;5572;49.540;11.932;2022-08-21T13:21:44;3.28;;;3.08;;
11037;SDS011;5572;49.540;11.932;2022-08-21T13:24:15;4.53;;;3.20;;
11037;SDS011;5572;49.540;11.932;2022-08-21T13:26:44;3.50;;;3.20;;
11037;SDS011;5572;49.540;11.932;2022-08-21T13:29:12;4.70;;;3.30;;
11037;SDS011;5572;49.540;11.932;2022-08-21T13:31:40;4.10;;;3.10;;
11037;SDS011;5572;49.540;11.932;2022-08-21T13:34:15;3.22;;;3.03;;
11037;SDS011;5572;49.540;11.932;2022-08-21T13:36:43;3.47;;;3.28;;
11037;SDS011;5572;49.540;11.932;2022-08-21T13:39:12;3.58;;;3.35;;
11037;SDS011;5572;49.540;11.932;2022-08-21T13:41:43;3.60;;;3.30;;
11037;SDS011;5572;49.540;11.932;2022-08-21T13:44:15;3.30;;;3.10;;
11037;SDS011;5572;49.540;11.932;2022-08-21T13:46:43;3.28;;;3.08;;
11037;SDS011;5572;49.540;11.932;2022-08-21T13:49:12;3.63;;;3.30;;
11037;SDS011;5572;49.540;11.932;2022-08-21T13:51:42;3.33;;;3.13;;
11037;SDS011;5572;49.540;11.932;2022-08-21T13:54:14;3.53;;;3.25;;
11037;SDS011;5572;49.540;11.932;2022-08-21T13:56:49;4.07;;;3.13;;
11037;SDS011;5572;49.540;11.932;2022-08-21T13:59:26;6.22;;;3.53;;
11037;SDS011;5572;49.540;11.932;2022-08-21T14:01:55;3.45;;;3.20;;
11037;SDS011;5572;49.540;11.932;2022-08-21T14:04:26;3.20;;;2.88;;
11037;SDS011;5572;49.540;11.932;2022-08-21T14:07:01;3.47;;;3.28;;
11037;SDS011;5572;49.540;11.932;2022-08-21T14:09:40;4.43;;;3.17;;
11037;SDS011;5572;49.540;11.932;2022-08-21T14:12:11;2.80;;;2.60;;
11037;SDS011;5572;49.540;11.932;2022-08-21T14:14:40;3.10;;;2.80;;
11037;SDS011;5572;49.540;11.932;2022-08-21T14:17:09;3.50;;;3.30;;
11037;SDS011;5572;49.540;11.932;2022-08-21T14:19:40;2.90;;;2.80;;
11037;SDS011;5572;49.540;11.932;2022-08-21T14:22:22;4.22;;;3.35;;
11037;SDS011;5572;49.540;11.932;2022-08-21T14:24:58;2.55;;;2.45;;
11037;SDS011;5572;49.540;11.932;2022-08-21T14:27:28;5.10;;;2.85;;
11037;SDS011;5572;49.540;11.932;2022-08-21T14:29:57;3.08;;;2.88;;
11037;SDS011;5572;49.540;11.932;2022-08-21T14:32:27;3.00;;;2.80;;
11037;SDS011;5572;49.540;11.932;2022-08-21T14:34:55;4.95;;;2.60;;
11037;SDS011;5572;49.540;11.932;2022-08-21T14:37:24;3.25;;;3.05;;
11037;SDS011;5572;49.540;11.932;2022-08-21T14:39:51;2.97;;;2.78;;
11037;SDS011;5572;49.540;11.932;2022-08-21T14:42:18;3.28;;;2.97;;
11037;SDS011;5572;49.540;11.932;2022-08-21T14:44:45;4.15;;;2.95;;
11037;SDS011;5572;49.540;11.932;2022-08-21T14:47:11;7.78;;;3.35;;
11037;SDS011;5572;49.540;11.932;2022-08-21T14:49:38;4.90;;;2.80;;
11037;SDS011;5572;49.540;11.932;2022-08-21T14:52:05;2.88;;;2.67;;
11037;SDS011;5572;49.540;11.932;2022-08-21T14:54:33;3.03;;;2.83;;
11037;SDS011;5572;49.540;11.932;2022-08-21T14:57:00;3.00;;;2.83;;
11037;SDS011;5572;49.540;11.932;2022-08-21T14:59:29;3.10;;;2.90;;
11037;SDS011;5572;49.540;11.932;2022-08-21T15:01:58;3.30;;;3.00;;
11037;SDS011;5572;49.540;11.932;2022-08-21T15:04:24;3.20;;;3.00;;
11037;SDS011;5572;49.540;11.932;2022-08-21T15:06:51;2.92;;;2.72;;
11037;SDS011;5572;49.540;11.932;2022-08-21T15:09:17;4.45;;;2.70;;
11037;SDS011;5572;49.540;11.932;2022-08-21T15:11:45;2.92;;;2.72;;
11037;SDS011;5572;49.540;11.932;2022-08-21T15:14:14;2.88;;;2.67;;
11037;SDS011;5572;49.540;11.932;2022-08-21T15:16:45;3.03;;;2.83;;
11037;SDS011;5572;49.540;11.932;2022-08-21T15:19:13;3.05;;;2.80;;
11037;SDS011;5572;49.540;11.932;2022-08-21T15:21:40;3.55;;;3.25;;
11037;SDS011;5572;49.540;11.932;2022-08-21T15:24:06;3.50;;;3.30;;
11037;SDS011;5572;49.540;11.932;2022-08-21T15:26:33;2.67;;;2.58;;
11037;SDS011;5572;49.540;11.932;2022-08-21T15:29:01;3.13;;;2.88;;
11037;SDS011;5572;49.540;11.932;2022-08-21T15:31:30;2.78;;;2.67;;
11037;SDS011;5572;49.540;11.932;2022-08-21T15:33:57;2.75;;;2.55;;
11037;SDS011;5572;49.540;11.932;2022-08-21T15:36:23;2.90;;;2.70;;
11037;SDS011;5572;49.540;11.932;2022-08-21T15:38:50;7.00;;;2.70;;
11037;SDS011;5572;49.540;11.932;2022-08-21T15:41:16;2.85;;;2.65;;
11037;SDS011;5572;49.540;11.932;2022-08-21T15:43:45;3.10;;;2.90;;
11037;SDS011;5572;49.540;11.932;2022-08-21T15:46:16;2.88;;;2.67;;
11037;SDS011;5572;49.540;11.932;2022-08-21T15:48:44;3.47;;;2.70;;
11037;SDS011;5572;49.540;11.932;2022-08-21T15:51:13;3.15;;;2.95;;
11037;SDS011;5572;49.540;11.932;2022-08-21T15:53:41;3.17;;;2.97;;
11037;SDS011;5572;49.540;11.932;2022-08-21T15:56:10;2.80;;;2.60;;
11037;SDS011;5572;49.540;11.932;2022-08-21T15:58:43;3.53;;;3.10;;
11037;SDS011;5572;49.540;11.932;2022-08-21T16:01:10;3.08;;;2.88;;
11037;SDS011;5572;49.540;11.932;2022-08-21T16:03:38;3.13;;;2.92;;
11037;SDS011;5572;49.540;11.932;2022-08-21T16:06:04;4.55;;;2.58;;
11037;SDS011;5572;49.540;11.932;2022-08-21T16:08:31;3.20;;;3.00;;
11037;SDS011;5572;49.540;11.932;2022-08-21T16:10:58;2.85;;;2.67;;
11037;SDS011;5572;49.540;11.932;2022-08-21T16:13:27;2.95;;;2.67;;
11037;SDS011;5572;49.540;11.932;2022-08-21T16:15:59;3.30;;;3.10;;
11037;SDS011;5572;49.540;11.932;2022-08-21T16:18:26;3.10;;;2.90;;
11037;SDS011;5572;49.540;11.932;2022-08-21T16:20:54;3.08;;;2.88;;
11037;SDS011;5572;49.540;11.932;2022-08-21T16:23:20;3.00;;;2.80;;
11037;SDS011;5572;49.540;11.932;2022-08-21T16:25:47;2.83;;;2.63;;
11037;SDS011;5572;49.540;11.932;2022-08-21T16:28:15;3.08;;;2.88;;
11037;SDS011;5572;49.540;11.932;2022-08-21T16:30:46;3.00;;;2.72;;
11037;SDS011;5572;49.540;11.932;2022-08-21T16:33:18;4.28;;;3.30;;
11037;SDS011;5572;49.540;11.932;2022-08-21T16:35:49;3.13;;;2.92;;
11037;SDS011;5572;49.540;11.932;2022-08-21T16:38:17;3.30;;;3.10;;
11037;SDS011;5572;49.540;11.932;2022-08-21T16:40:44;3.17;;;2.97;;
11037;SDS011;5572;49.540;11.932;2022-08-21T16:43:10;3.03;;;2.83;;
11037;SDS011;5572;49.540;11.932;2022-08-21T16:45:37;3.20;;;3.00;;
11037;SDS011;5572;49.540;11.932;2022-08-21T16:48:08;3.25;;;2.55;;
11037;SDS011;5572;49.540;11.932;2022-08-21T16:50:35;2.90;;;2.70;;
11037;SDS011;5572;49.540;11.932;2022-08-21T16:53:02;3.10;;;2.85;;
11037;SDS011;5572;49.540;11.932;2022-08-21T16:55:31;3.40;;;3.10;;
11037;SDS011;5572;49.540;11.932;2022-08-21T16:58:00;3.00;;;2.80;;
11037;SDS011;5572;49.540;11.932;2022-08-21T17:00:29;3.22;;;3.00;;
11037;SDS011;5572;49.540;11.932;2022-08-21T17:02:56;2.53;;;2.40;;
11037;SDS011;5572;49.540;11.932;2022-08-21T17:05:23;3.45;;;3.15;;
11037;SDS011;5572;49.540;11.932;2022-08-21T17:07:49;3.42;;;3.15;;
11037;SDS011;5572;49.540;11.932;2022-08-21T17:10:16;3.58;;;2.97;;
11037;SDS011;5572;49.540;11.932;2022-08-21T17:12:46;3.25;;;3.05;;
11037;SDS011;5572;49.540;11.932;2022-08-21T17:15:21;3.20;;;3.00;;
11037;SDS011;5572;49.540;11.932;2022-08-21T17:17:48;3.17;;;3.03;;
11037;SDS011;5572;49.540;11.932;2022-08-21T17:20:16;3.47;;;3.28;;
11037;SDS011;5572;49.540;11.932;2022-08-21T17:22:44;2.85;;;2.53;;
11037;SDS011;5572;49.540;11.932;2022-08-21T17:25:10;3.38;;;3.17;;
11037;SDS011;5572;49.540;11.932;2022-08-21T17:27:38;3.30;;;3.03;;
11037;SDS011;5572;49.540;11.932;2022-08-21T17:30:07;3.13;;;2.92;;
11037;SDS011;5572;49.540;11.932;2022-08-21T17:32:35;3.00;;;2.80;;
11037;SDS011;5572;49.540;11.932;2022-08-21T17:35:02;3.60;;;3.33;;
11037;SDS011;5572;49.540;11.932;2022-08-21T17:37:29;3.08;;;2.88;;
11037;SDS011;5572;49.540;11.932;2022-08-21T17:39:56;3.10;;;2.90;;
11037;SDS011;5572;49.540;11.932;2022-08-21T17:42:23;3.42;;;3.22;;
11037;SDS011;5572;49.540;11.932;2022-08-21T17:44:50;3.58;;;3.28;;
11037;SDS011;5572;49.540;11.932;2022-08-21T17:47:18;3.67;;;3.38;;
11037;SDS011;5572;49.540;11.932;2022-08-21T17:49:44;3.50;;;3.20;;
11037;SDS011;5572;49.540;11.932;2022-08-21T17:52:11;3.57;;;3.27;;
11037;SDS011;5572;49.540;11.932;2022-08-21T17:54:38;4.23;;;3.60;;
11037;SDS011;5572;49.540;11.932;2022-08-21T17:57:05;3.87;;;3.47;;
11037;SDS011;5572;49.540;11.932;2022-08-21T17:59:33;4.47;;;3.67;;
11037;SDS011;5572;49.540;11.932;2022-08-21T18:02:00;3.77;;;3.47;;
11037;SDS011;5572;49.540;11.932;2022-08-21T18:04:30;6.20;;;3.60;;
11037;SDS011;5572;49.540;11.932;2022-08-21T18:06:56;5.37;;;3.83;;
11037;SDS011;5572;49.540;11.932;2022-08-21T18:09:23;3.57;;;3.27;;
11037;SDS011;5572;49.540;11.932;2022-08-21T18:11:52;3.93;;;3.57;;
11037;SDS011;5572;49.540;11.932;2022-08-21T18:14:19;6.93;;;3.93;;
11037;SDS011;5572;49.540;11.932;2022-08-21T18:16:50;3.83;;;3.50;;
11037;SDS011;5572;49.540;11.932;2022-08-21T18:19:16;3.80;;;3.60;;
11037;SDS011;5572;49.540;11.932;2022-08-21T18:21:47;3.70;;;3.40;;
11037;SDS011;5572;49.540;11.932;2022-08-21T18:24:13;3.47;;;3.17;;
11037;SDS011;5572;49.540;11.932;2022-08-21T18:26:40;3.80;;;3.50;;
11037;SDS011;5572;49.540;11.932;2022-08-21T18:29:09;3.83;;;3.53;;
11037;SDS011;5572;49.540;11.932;2022-08-21T18:31:38;4.00;;;3.60;;
11037;SDS011;5572;49.540;11.932;2022-08-21T18:34:09;3.43;;;3.23;;
11037;SDS011;5572;49.540;11.932;2022-08-21T18:36:42;4.20;;;3.80;;
11037;SDS011;5572;49.540;11.932;2022-08-21T18:39:10;3.70;;;3.27;;
11037;SDS011;5572;49.540;11.932;2022-08-21T18:41:37;3.70;;;3.40;;
11037;SDS011;5572;49.540;11.932;2022-08-21T18:44:03;7.37;;;3.60;;
11037;SDS011;5572;49.540;11.932;2022-08-21T18:46:30;4.77;;;3.67;;
11037;SDS011;5572;49.540;11.932;2022-08-21T18:48:57;3.93;;;3.50;;
11037;SDS011;5572;49.540;11.932;2022-08-21T18:51:23;3.57;;;3.33;;
11037;SDS011;5572;49.540;11.932;2022-08-21T18:53:50;5.63;;;4.03;;
11037;SDS011;5572;49.540;11.932;2022-08-21T18:56:18;6.53;;;3.97;;
11037;SDS011;5572;49.540;11.932;2022-08-21T18:58:45;4.37;;;3.60;;
11037;SDS011;5572;49.540;11.932;2022-08-21T19:01:12;3.60;;;3.27;;
11037;SDS011;5572;49.540;11.932;2022-08-21T19:03:38;4.20;;;3.73;;
11037;SDS011;5572;49.540;11.932;2022-08-21T19:06:05;4.23;;;3.90;;
11037;SDS011;5572;49.540;11.932;2022-08-21T19:08:32;4.07;;;3.47;;
11037;SDS011;5572;49.540;11.932;2022-08-21T19:10:59;3.17;;;2.97;;
11037;SDS011;5572;49.540;11.932;2022-08-21T19:13:28;5.70;;;3.60;;
11037;SDS011;5572;49.540;11.932;2022-08-21T19:15:55;5.37;;;3.90;;
11037;SDS011;5572;49.540;11.932;2022-08-21T19:18:25;6.10;;;3.83;;
11037;SDS011;5572;49.540;11.932;2022-08-21T19:20:52;4.20;;;3.80;;
11037;SDS011;5572;49.540;11.932;2022-08-21T19:23:19;4.53;;;4.13;;
11037;SDS011;5572;49.540;11.932;2022-08-21T19:25:48;4.07;;;3.30;;
11037;SDS011;5572;49.540;11.932;2022-08-21T19:28:21;4.40;;;4.00;;
11037;SDS011;5572;49.540;11.932;2022-08-21T19:30:55;4.20;;;3.80;;
11037;SDS011;5572;49.540;11.932;2022-08-21T19:33:25;4.03;;;3.70;;
11037;SDS011;5572;49.540;11.932;2022-08-21T19:35:55;4.20;;;3.80;;
11037;SDS011;5572;49.540;11.932;2022-08-21T19:38:21;4.33;;;3.93;;
11037;SDS011;5572;49.540;11.932;2022-08-21T19:40:48;5.17;;;3.60;;
11037;SDS011;5572;49.540;11.932;2022-08-21T19:43:16;4.00;;;3.70;;
11037;SDS011;5572;49.540;11.932;2022-08-21T19:45:43;4.80;;;4.00;;
11037;SDS011;5572;49.540;11.932;2022-08-21T19:48:12;3.50;;;3.30;;
11037;SDS011;5572;49.540;11.932;2022-08-21T19:50:39;4.60;;;3.40;;
11037;SDS011;5572;49.540;11.932;2022-08-21T19:53:05;4.43;;;3.60;;
11037;SDS011;5572;49.540;11.932;2022-08-21T19:55:32;7.63;;;4.40;;
11037;SDS011;5572;49.540;11.932;2022-08-21T19:57:58;5.10;;;3.87;;
11037;SDS011;5572;49.540;11.932;2022-08-21T20:00:26;4.23;;;3.83;;
11037;SDS011;5572;49.540;11.932;2022-08-21T20:02:52;4.20;;;3.80;;
11037;SDS011;5572;49.540;11.932;2022-08-21T20:05:21;4.37;;;3.97;;
11037;SDS011;5572;49.540;11.932;2022-08-21T20:07:47;6.63;;;4.17;;
11037;SDS011;5572;49.540;11.932;2022-08-21T20:10:14;4.40;;;4.00;;
11037;SDS011;5572;49.540;11.932;2022-08-21T20:12:40;5.33;;;4.83;;
11037;SDS011;5572;49.540;11.932;2022-08-21T20:15:11;5.17;;;4.03;;
11037;SDS011;5572;49.540;11.932;2022-08-21T20:17:41;5.83;;;4.07;;
11037;SDS011;5572;49.540;11.932;2022-08-21T20:20:07;6.43;;;4.17;;
11037;SDS011;5572;49.540;11.932;2022-08-21T20:22:35;4.60;;;4.20;;
11037;SDS011;5572;49.540;11.932;2022-08-21T20:25:02;4.00;;;3.70;;
11037;SDS011;5572;49.540;11.932;2022-08-21T20:27:29;4.77;;;4.20;;
11037;SDS011;5572;49.540;11.932;2022-08-21T20:29:56;4.83;;;4.33;;
11037;SDS011;5572;49.540;11.932;2022-08-21T20:32:22;5.03;;;4.63;;
11037;SDS011;5572;49.540;11.932;2022-08-21T20:34:49;4.80;;;4.40;;
11037;SDS011;5572;49.540;11.932;2022-08-21T20:37:16;3.90;;;3.50;;
11037;SDS011;5572;49.540;11.932;2022-08-21T20:39:44;4.03;;;3.73;;
11037;SDS011;5572;49.540;11.932;2022-08-21T20:42:11;4.63;;;4.30;;
11037;SDS011;5572;49.540;11.932;2022-08-21T20:44:44;4.10;;;3.80;;
11037;SDS011;5572;49.540;11.932;2022-08-21T20:47:48;4.43;;;4.03;;
11037;SDS011;5572;49.540;11.932;2022-08-21T20:50:19;4.57;;;4.07;;
11037;SDS011;5572;49.540;11.932;2022-08-21T20:52:51;4.23;;;3.83;;
11037;SDS011;5572;49.540;11.932;2022-08-21T20:55:23;5.73;;;4.23;;
11037;SDS011;5572;49.540;11.932;2022-08-21T20:57:51;3.90;;;3.60;;
11037;SDS011;5572;49.540;11.932;2022-08-21T21:00:25;3.90;;;3.60;;
11037;SDS011;5572;49.540;11.932;2022-08-21T21:02:55;4.17;;;3.87;;
11037;SDS011;5572;49.540;11.932;2022-08-21T21:05:27;5.50;;;4.53;;
11037;SDS011;5572;49.540;11.932;2022-08-21T21:08:00;5.80;;;4.80;;
11037;SDS011;5572;49.540;11.932;2022-08-21T21:10:34;4.43;;;4.13;;
11037;SDS011;5572;49.540;11.932;2022-08-21T21:13:05;4.73;;;4.30;;